Time;durP1;ratioP1;P1;durP2;ratioP2;P2;SDS_P1;SDS_P2;PMS_P1;PMS_P2;Temp;Humidity;BMP_temperature;BMP_pressure;BME280_temperature;BME280_humidity;BME280_pressure;Samples;Min_cycle;Max_cycle;Signal;HPM_P1;HPM_P2
2022/12/05 00:02:00;;;;;;;;;;;3.70;99.90;;;;;;4973051;28;19921;-63
2022/12/05 00:04:26;;;;;;;;;;;3.60;99.90;;;;;;4964831;28;20547;-63
2022/12/05 00:06:51;;;;;;;;;;;3.60;99.90;;;;;;4950066;28;19993;-62
2022/12/05 00:09:17;;;;;;;;;;;3.60;99.90;;;;;;4959297;28;20255;-63
2022/12/05 00:11:43;;;;;;;;;;;3.60;99.90;;;;;;4969750;28;20001;-62
2022/12/05 00:14:09;;;;;;;;;;;3.50;99.90;;;;;;4952590;28;19973;-62
2022/12/05 00:16:36;;;;;;;;;;;3.60;99.90;;;;;;4958291;28;20369;-63
2022/12/05 00:19:03;;;;;;;;;;;3.80;99.90;;;;;;4954278;28;19946;-63
2022/12/05 00:21:30;;;;;;;;;;;3.70;99.90;;;;;;4950842;28;19910;-63
2022/12/05 00:23:56;;;;;;;;;;;3.60;99.90;;;;;;4966704;28;19914;-62
2022/12/05 00:26:22;;;;;;;;;;;3.30;99.90;;;;;;4955198;28;19926;-62
2022/12/05 00:28:48;;;;;;;;;;;3.30;99.90;;;;;;4947997;28;20375;-63
2022/12/05 00:31:16;;;;;;;;;;;3.60;99.90;;;;;;4954408;28;19926;-63
2022/12/05 00:33:42;;;;;;;;;;;3.60;99.90;;;;;;4949731;28;20393;-62
2022/12/05 00:36:09;;;;;;;;;;;3.80;99.90;;;;;;4954304;28;19922;-63
2022/12/05 00:38:34;;;;;;;;;;;3.60;99.90;;;;;;4956695;28;20151;-63
2022/12/05 00:41:07;;;;;;;;;;;3.80;99.90;;;;;;4958264;28;20005;-62
2022/12/05 00:43:33;;;;;;;;;;;3.70;99.90;;;;;;4954783;28;20009;-62
2022/12/05 00:46:02;;;;;;;;;;;3.40;99.90;;;;;;4960586;28;20012;-62
2022/12/05 00:48:27;;;;;;;;;;;3.50;99.90;;;;;;4950464;28;19914;-63
2022/12/05 00:51:04;;;;;;;;;;;3.80;99.90;;;;;;4951406;28;19944;-63
2022/12/05 00:53:30;;;;;;;;;;;3.80;99.90;;;;;;4961824;28;19917;-63
2022/12/05 00:56:00;;;;;;;;;;;3.80;99.90;;;;;;4957125;28;19914;-63
2022/12/05 00:58:25;;;;;;;;;;;3.70;99.90;;;;;;4959892;28;19965;-63
2022/12/05 01:00:51;;;;;;;;;;;3.50;99.90;;;;;;4955593;28;19914;-63
2022/12/05 01:03:16;;;;;;;;;;;3.50;99.90;;;;;;4954134;28;20000;-63
2022/12/05 01:05:42;;;;;;;;;;;3.60;99.90;;;;;;4956788;28;19941;-63
2022/12/05 01:08:07;;;;;;;;;;;3.70;99.90;;;;;;4957281;28;19929;-63
2022/12/05 01:10:32;;;;;;;;;;;3.70;99.90;;;;;;4954614;28;20558;-63
2022/12/05 01:12:58;;;;;;;;;;;3.70;99.90;;;;;;4953636;28;19910;-63
2022/12/05 01:15:23;;;;;;;;;;;3.60;99.90;;;;;;4954592;28;19922;-63
2022/12/05 01:17:49;;;;;;;;;;;3.50;99.90;;;;;;4951717;28;19911;-63
2022/12/05 01:20:14;;;;;;;;;;;3.60;99.90;;;;;;4951011;28;20016;-63
2022/12/05 01:22:40;;;;;;;;;;;3.90;99.90;;;;;;4959727;28;19914;-63
2022/12/05 01:25:05;;;;;;;;;;;3.60;99.90;;;;;;4961063;28;19910;-62
2022/12/05 01:27:31;;;;;;;;;;;3.60;99.90;;;;;;4958810;28;20263;-62
2022/12/05 01:29:56;;;;;;;;;;;3.80;99.90;;;;;;4958866;28;19918;-63
2022/12/05 01:32:22;;;;;;;;;;;3.80;99.90;;;;;;4954241;28;20012;-62
2022/12/05 01:34:48;;;;;;;;;;;3.90;99.90;;;;;;4952767;28;19961;-63
2022/12/05 01:37:13;;;;;;;;;;;3.90;99.90;;;;;;4953085;28;19917;-63
2022/12/05 01:39:39;;;;;;;;;;;3.90;99.90;;;;;;4963316;28;19918;-63
2022/12/05 01:42:04;;;;;;;;;;;3.90;99.90;;;;;;4961290;28;19941;-63
2022/12/05 01:44:30;;;;;;;;;;;4.00;99.90;;;;;;4955731;28;19924;-63
2022/12/05 01:46:55;;;;;;;;;;;3.90;99.90;;;;;;4955935;28;19984;-63
2022/12/05 01:49:27;;;;;;;;;;;3.60;99.90;;;;;;4960563;28;20276;-63
2022/12/05 01:51:54;;;;;;;;;;;3.70;99.90;;;;;;4964690;28;20006;-63
2022/12/05 01:54:21;;;;;;;;;;;3.50;99.90;;;;;;4952371;28;19976;-62
2022/12/05 01:56:52;;;;;;;;;;;3.40;99.90;;;;;;4955751;28;19918;-63
2022/12/05 01:59:18;;;;;;;;;;;3.40;99.90;;;;;;4950378;28;20374;-63
2022/12/05 02:01:44;;;;;;;;;;;3.40;99.90;;;;;;4959928;28;19914;-63
2022/12/05 02:04:09;;;;;;;;;;;3.50;99.90;;;;;;4960481;28;19921;-63
2022/12/05 02:06:35;;;;;;;;;;;3.80;99.90;;;;;;4961025;28;19965;-62
2022/12/05 02:09:01;;;;;;;;;;;3.60;99.90;;;;;;4955206;28;20013;-63
2022/12/05 02:11:27;;;;;;;;;;;3.80;99.90;;;;;;4953936;28;20278;-63
2022/12/05 02:14:05;;;;;;;;;;;3.70;99.90;;;;;;4959871;28;19918;-63
2022/12/05 02:16:36;;;;;;;;;;;3.60;99.90;;;;;;4948687;28;19922;-62
2022/12/05 02:19:11;;;;;;;;;;;3.40;99.90;;;;;;4959986;28;19942;-62
2022/12/05 02:21:36;;;;;;;;;;;3.50;99.90;;;;;;4951524;28;20015;-62
2022/12/05 02:24:19;;;;;;;;;;;3.50;99.90;;;;;;4949245;28;19914;-62
2022/12/05 02:27:03;;;;;;;;;;;3.60;99.90;;;;;;4959505;28;19961;-63
2022/12/05 02:29:47;;;;;;;;;;;3.60;99.90;;;;;;4956694;28;19925;-62
2022/12/05 02:32:19;;;;;;;;;;;3.60;99.90;;;;;;4957528;28;19918;-60
2022/12/05 02:34:56;;;;;;;;;;;3.50;99.90;;;;;;4961522;28;20005;-63
2022/12/05 02:37:27;;;;;;;;;;;3.40;99.90;;;;;;4968599;28;20001;-62
2022/12/05 02:40:02;;;;;;;;;;;3.70;99.90;;;;;;4959271;28;19925;-62
2022/12/05 02:42:37;;;;;;;;;;;3.90;99.90;;;;;;4952545;28;20144;-62
2022/12/05 02:45:06;;;;;;;;;;;4.00;99.90;;;;;;4954509;28;20301;-63
2022/12/05 02:47:33;;;;;;;;;;;3.90;99.90;;;;;;4960659;28;20004;-62
2022/12/05 02:49:59;;;;;;;;;;;3.70;99.90;;;;;;4963725;28;20187;-62
2022/12/05 02:52:25;;;;;;;;;;;3.70;99.90;;;;;;4950291;28;19917;-62
2022/12/05 02:54:52;;;;;;;;;;;3.40;99.90;;;;;;4958728;28;20001;-62
2022/12/05 02:57:19;;;;;;;;;;;3.40;99.90;;;;;;4974688;28;20341;-62
2022/12/05 02:59:44;;;;;;;;;;;3.50;99.90;;;;;;4962725;28;19957;-62
2022/12/05 03:02:21;;;;;;;;;;;3.50;99.90;;;;;;4982454;28;19921;-63
2022/12/05 03:04:47;;;;;;;;;;;3.60;99.90;;;;;;4960496;28;20393;-63
2022/12/05 03:07:13;;;;;;;;;;;3.50;99.90;;;;;;4949376;28;19918;-62
2022/12/05 03:09:42;;;;;;;;;;;3.50;99.90;;;;;;4957675;28;19920;-62
2022/12/05 03:12:11;;;;;;;;;;;3.50;99.90;;;;;;4960611;28;19922;-62
2022/12/05 03:14:45;;;;;;;;;;;3.50;99.90;;;;;;4958508;28;19910;-62
2022/12/05 03:17:12;;;;;;;;;;;3.50;99.90;;;;;;4958702;28;20412;-62
2022/12/05 03:19:57;;;;;;;;;;;3.40;99.90;;;;;;4960197;28;19914;-62
2022/12/05 03:22:31;;;;;;;;;;;3.50;99.90;;;;;;4956102;28;19910;-62
2022/12/05 03:24:58;;;;;;;;;;;3.60;99.90;;;;;;4964021;28;20484;-63
2022/12/05 03:27:31;;;;;;;;;;;3.60;99.90;;;;;;4957940;28;20023;-63
2022/12/05 03:30:06;;;;;;;;;;;3.50;99.90;;;;;;4959743;28;19937;-62
2022/12/05 03:32:34;;;;;;;;;;;3.60;99.90;;;;;;4957815;28;20061;-62
2022/12/05 03:35:05;;;;;;;;;;;3.60;99.90;;;;;;4965009;28;19910;-63
2022/12/05 03:37:36;;;;;;;;;;;3.70;99.90;;;;;;4956673;28;19921;-62
2022/12/05 03:40:22;;;;;;;;;;;3.60;99.90;;;;;;4948552;28;20450;-62
2022/12/05 03:42:53;;;;;;;;;;;3.60;99.90;;;;;;4948329;28;19979;-63
2022/12/05 03:45:21;;;;;;;;;;;3.90;99.90;;;;;;4958033;28;19914;-63
2022/12/05 03:47:49;;;;;;;;;;;4.00;99.90;;;;;;4954464;28;19976;-64
2022/12/05 03:50:21;;;;;;;;;;;4.20;99.90;;;;;;4944803;28;20048;-65
2022/12/05 03:52:49;;;;;;;;;;;4.30;99.90;;;;;;4962040;28;20365;-64
2022/12/05 03:55:16;;;;;;;;;;;4.30;99.90;;;;;;4956995;28;19914;-64
2022/12/05 03:57:56;;;;;;;;;;;3.90;99.90;;;;;;4968032;28;20294;-63
2022/12/05 04:00:23;;;;;;;;;;;3.60;99.90;;;;;;4958350;28;20530;-64
2022/12/05 04:02:51;;;;;;;;;;;3.80;99.90;;;;;;4952229;28;20509;-64
2022/12/05 04:05:25;;;;;;;;;;;3.90;99.90;;;;;;4958230;28;20441;-64
2022/12/05 04:07:54;;;;;;;;;;;4.00;99.90;;;;;;4960618;28;19918;-63
2022/12/05 04:10:22;;;;;;;;;;;3.70;99.90;;;;;;4955785;28;19910;-63
2022/12/05 04:12:50;;;;;;;;;;;3.50;99.90;;;;;;4957480;28;19949;-64
2022/12/05 04:15:19;;;;;;;;;;;3.50;99.90;;;;;;4961118;28;19966;-63
2022/12/05 04:17:54;;;;;;;;;;;3.70;99.90;;;;;;4956612;28;19922;-64
2022/12/05 04:23:07;;;;;;;;;;;3.90;99.90;;;;;;4951705;28;19917;-64
2022/12/05 04:25:41;;;;;;;;;;;3.70;99.90;;;;;;4958796;28;19910;-63
2022/12/05 04:28:25;;;;;;;;;;;3.60;99.90;;;;;;4958277;28;20349;-63
2022/12/05 04:30:51;;;;;;;;;;;3.70;99.90;;;;;;4952648;28;19910;-63
2022/12/05 04:33:22;;;;;;;;;;;3.50;99.90;;;;;;4956913;28;19914;-63
2022/12/05 04:35:50;;;;;;;;;;;3.40;99.90;;;;;;4948771;28;20202;-63
2022/12/05 04:38:24;;;;;;;;;;;3.50;99.90;;;;;;4958815;28;20521;-63
2022/12/05 04:40:54;;;;;;;;;;;3.50;99.90;;;;;;4961563;28;19910;-63
2022/12/05 04:43:21;;;;;;;;;;;3.40;99.90;;;;;;4972813;28;20476;-63
2022/12/05 04:45:47;;;;;;;;;;;3.50;99.90;;;;;;4948740;28;20381;-63
2022/12/05 04:48:14;;;;;;;;;;;3.70;99.90;;;;;;4947201;28;20170;-64
2022/12/05 04:50:41;;;;;;;;;;;3.70;99.90;;;;;;4960969;28;20592;-64
2022/12/05 04:53:07;;;;;;;;;;;3.50;99.90;;;;;;4950745;28;19917;-63
2022/12/05 04:55:34;;;;;;;;;;;3.40;99.90;;;;;;4959599;28;19919;-64
2022/12/05 04:58:08;;;;;;;;;;;3.40;99.90;;;;;;4963929;28;20494;-64
2022/12/05 05:00:37;;;;;;;;;;;3.70;99.90;;;;;;4952114;28;19954;-63
2022/12/05 05:03:05;;;;;;;;;;;3.50;99.90;;;;;;4962387;28;20057;-64
2022/12/05 05:05:31;;;;;;;;;;;3.60;99.90;;;;;;4959311;28;20396;-64
2022/12/05 05:07:57;;;;;;;;;;;3.60;99.90;;;;;;4963025;28;19918;-64
2022/12/05 05:10:31;;;;;;;;;;;3.50;99.90;;;;;;4968273;28;19969;-64
2022/12/05 05:12:57;;;;;;;;;;;3.60;99.90;;;;;;4954930;28;19993;-64
2022/12/05 05:15:22;;;;;;;;;;;3.80;99.90;;;;;;4953345;28;20008;-64
2022/12/05 05:17:48;;;;;;;;;;;3.90;99.90;;;;;;4958410;28;19914;-63
2022/12/05 05:20:22;;;;;;;;;;;3.70;99.90;;;;;;4958491;28;19998;-64
2022/12/05 05:22:57;;;;;;;;;;;3.70;99.90;;;;;;5068968;27;19929;-64
2022/12/05 05:25:23;;;;;;;;;;;3.60;99.90;;;;;;5055204;27;20450;-64
2022/12/05 05:27:52;;;;;;;;;;;3.60;99.90;;;;;;5056058;28;19917;-64
2022/12/05 05:30:19;;;;;;;;;;;3.70;99.90;;;;;;5055861;28;19917;-64
2022/12/05 05:32:44;;;;;;;;;;;3.70;99.90;;;;;;5058904;28;19925;-64
2022/12/05 05:35:10;;;;;;;;;;;3.70;99.90;;;;;;5063162;28;20003;-63
2022/12/05 05:37:36;;;;;;;;;;;3.60;99.90;;;;;;5058830;28;19990;-64
2022/12/05 05:40:02;;;;;;;;;;;3.50;99.90;;;;;;5055143;28;20291;-64
2022/12/05 05:42:27;;;;;;;;;;;3.60;99.90;;;;;;5057590;28;19925;-64
2022/12/05 05:44:53;;;;;;;;;;;3.50;99.90;;;;;;5058899;28;19959;-64
2022/12/05 05:47:18;;;;;;;;;;;3.50;99.90;;;;;;5058866;28;20136;-63
2022/12/05 05:49:44;;;;;;;;;;;3.40;99.90;;;;;;5055404;28;19943;-63
2022/12/05 05:52:09;;;;;;;;;;;3.40;99.90;;;;;;5057637;28;20461;-63
2022/12/05 05:54:35;;;;;;;;;;;3.50;99.90;;;;;;5054980;28;20027;-63
2022/12/05 05:57:00;;;;;;;;;;;3.50;99.90;;;;;;5068953;28;20412;-63
2022/12/05 05:59:26;;;;;;;;;;;3.50;99.90;;;;;;5058144;28;19983;-64
2022/12/05 06:01:51;;;;;;;;;;;3.60;99.90;;;;;;5065412;28;20496;-63
2022/12/05 06:04:17;;;;;;;;;;;3.70;99.90;;;;;;5057860;28;20022;-64
2022/12/05 06:06:42;;;;;;;;;;;3.80;99.90;;;;;;5055471;28;19916;-63
2022/12/05 06:09:08;;;;;;;;;;;3.60;99.90;;;;;;5068154;28;20016;-64
2022/12/05 06:11:33;;;;;;;;;;;3.60;99.90;;;;;;5057962;28;19917;-64
2022/12/05 06:14:00;;;;;;;;;;;3.60;99.90;;;;;;5064278;28;20369;-64
2022/12/05 06:16:26;;;;;;;;;;;3.60;99.90;;;;;;5055907;28;19924;-64
2022/12/05 06:18:52;;;;;;;;;;;3.50;99.90;;;;;;5056684;28;19920;-63
2022/12/05 06:21:18;;;;;;;;;;;3.70;99.90;;;;;;5063186;28;19982;-62
2022/12/05 06:23:44;;;;;;;;;;;3.80;99.90;;;;;;5070971;28;19928;-62
2022/12/05 06:26:10;;;;;;;;;;;3.90;99.90;;;;;;5087425;28;20280;-62
2022/12/05 06:28:38;;;;;;;;;;;4.10;99.90;;;;;;5071560;28;20405;-62
2022/12/05 06:31:20;;;;;;;;;;;4.10;99.90;;;;;;5068598;28;19930;-63
2022/12/05 06:33:45;;;;;;;;;;;3.80;99.90;;;;;;5060255;28;19936;-63
2022/12/05 06:36:12;;;;;;;;;;;3.90;99.90;;;;;;5072605;28;19919;-63
2022/12/05 06:38:38;;;;;;;;;;;3.90;99.90;;;;;;5066697;28;19924;-62
2022/12/05 06:41:07;;;;;;;;;;;3.70;99.90;;;;;;5065406;28;19916;-62
2022/12/05 06:43:32;;;;;;;;;;;3.60;99.90;;;;;;5063807;28;19912;-62
2022/12/05 06:45:58;;;;;;;;;;;3.50;99.90;;;;;;5065698;28;20479;-62
2022/12/05 06:48:23;;;;;;;;;;;3.40;99.90;;;;;;5063361;28;20007;-61
2022/12/05 06:50:50;;;;;;;;;;;3.60;99.90;;;;;;5066739;28;19912;-62
2022/12/05 06:53:15;;;;;;;;;;;3.60;99.90;;;;;;5053855;28;20141;-62
2022/12/05 06:55:41;;;;;;;;;;;3.80;99.90;;;;;;5062068;28;20641;-63
2022/12/05 06:58:06;;;;;;;;;;;3.70;99.90;;;;;;5058030;28;20454;-62
2022/12/05 07:03:16;;;;;;;;;;;3.60;99.90;;;;;;5057736;28;19927;-62
2022/12/05 07:05:42;;;;;;;;;;;3.30;99.90;;;;;;5060602;28;19920;-63
2022/12/05 07:08:07;;;;;;;;;;;3.50;99.90;;;;;;5053616;28;19985;-62
2022/12/05 07:10:32;;;;;;;;;;;3.40;99.90;;;;;;5068667;28;19912;-62
2022/12/05 07:12:58;;;;;;;;;;;3.60;99.90;;;;;;5044312;28;20097;-62
2022/12/05 07:15:23;;;;;;;;;;;3.50;99.90;;;;;;5051050;28;20157;-63
2022/12/05 07:17:49;;;;;;;;;;;3.20;99.90;;;;;;5058715;28;19916;-63
2022/12/05 07:20:16;;;;;;;;;;;3.20;99.90;;;;;;5062731;28;19923;-62
2022/12/05 07:22:43;;;;;;;;;;;3.10;99.90;;;;;;5065350;28;20046;-61
2022/12/05 07:25:08;;;;;;;;;;;3.20;99.90;;;;;;5052328;28;19925;-63
2022/12/05 07:27:34;;;;;;;;;;;3.20;99.90;;;;;;5051690;28;19938;-63
2022/12/05 07:30:00;;;;;;;;;;;3.40;99.90;;;;;;5059601;28;19917;-63
2022/12/05 07:32:25;;;;;;;;;;;3.70;99.90;;;;;;5049398;28;20283;-63
2022/12/05 07:34:50;;;;;;;;;;;3.60;99.90;;;;;;5059011;28;20371;-63
2022/12/05 07:37:16;;;;;;;;;;;3.50;99.90;;;;;;5061552;28;19947;-62
2022/12/05 07:39:41;;;;;;;;;;;3.40;99.90;;;;;;5047020;28;19928;-63
2022/12/05 07:42:07;;;;;;;;;;;3.40;99.90;;;;;;5042857;28;21134;-62
2022/12/05 07:44:32;;;;;;;;;;;3.40;99.90;;;;;;5037647;28;19931;-63
2022/12/05 07:46:58;;;;;;;;;;;3.50;99.90;;;;;;5043532;28;19921;-63
2022/12/05 07:49:23;;;;;;;;;;;3.80;99.90;;;;;;5040604;28;19920;-64
2022/12/05 07:51:49;;;;;;;;;;;3.90;99.90;;;;;;5037380;28;20008;-64
2022/12/05 07:54:14;;;;;;;;;;;4.50;99.90;;;;;;5038181;28;20308;-62
2022/12/05 07:56:40;;;;;;;;;;;4.10;99.90;;;;;;5041019;28;19928;-62
2022/12/05 07:59:05;;;;;;;;;;;3.90;99.90;;;;;;5040387;28;20014;-62
2022/12/05 08:01:31;;;;;;;;;;;3.90;99.90;;;;;;5040863;28;19920;-62
2022/12/05 08:03:57;;;;;;;;;;;3.90;99.90;;;;;;5037815;28;19924;-64
2022/12/05 08:06:24;;;;;;;;;;;4.00;99.90;;;;;;5046746;28;19969;-62
2022/12/05 08:08:50;;;;;;;;;;;3.90;99.90;;;;;;5064668;28;19913;-62
2022/12/05 08:11:17;;;;;;;;;;;3.60;99.90;;;;;;5056293;28;19923;-62
2022/12/05 08:13:43;;;;;;;;;;;3.40;99.90;;;;;;5042554;28;19924;-62
2022/12/05 08:16:11;;;;;;;;;;;3.50;99.90;;;;;;5038477;28;20477;-63
2022/12/05 08:18:37;;;;;;;;;;;3.70;99.90;;;;;;5041850;28;19917;-63
2022/12/05 08:21:03;;;;;;;;;;;3.50;99.90;;;;;;5036382;28;20210;-63
2022/12/05 08:23:30;;;;;;;;;;;3.30;99.90;;;;;;5037200;28;20456;-63
2022/12/05 08:25:55;;;;;;;;;;;3.50;99.90;;;;;;5037646;28;19959;-63
2022/12/05 08:28:21;;;;;;;;;;;3.20;99.90;;;;;;5040116;28;20011;-63
2022/12/05 08:30:46;;;;;;;;;;;3.40;99.90;;;;;;5038893;28;19936;-62
2022/12/05 08:33:11;;;;;;;;;;;3.30;99.90;;;;;;5030458;28;19928;-63
2022/12/05 08:35:37;;;;;;;;;;;3.30;99.90;;;;;;5037947;28;20045;-63
2022/12/05 08:38:02;;;;;;;;;;;3.30;99.90;;;;;;5046983;28;19925;-63
2022/12/05 08:40:28;;;;;;;;;;;3.40;99.90;;;;;;5050311;28;19924;-64
2022/12/05 08:42:53;;;;;;;;;;;3.20;99.90;;;;;;5049218;28;20878;-62
2022/12/05 08:45:19;;;;;;;;;;;3.20;99.90;;;;;;5044860;28;20051;-65
2022/12/05 08:47:44;;;;;;;;;;;3.20;99.90;;;;;;5045068;28;19927;-64
2022/12/05 08:50:10;;;;;;;;;;;3.30;99.90;;;;;;5040071;28;19920;-64
2022/12/05 08:52:35;;;;;;;;;;;3.10;99.90;;;;;;5044116;28;19917;-64
2022/12/05 08:55:00;;;;;;;;;;;3.10;99.90;;;;;;5043364;28;19973;-64
2022/12/05 08:57:26;;;;;;;;;;;2.90;99.90;;;;;;5043532;28;20536;-64
2022/12/05 08:59:51;;;;;;;;;;;3.20;99.90;;;;;;5058007;28;19924;-63
2022/12/05 09:02:17;;;;;;;;;;;3.40;99.90;;;;;;5043857;28;20023;-63
2022/12/05 09:04:42;;;;;;;;;;;3.60;99.90;;;;;;5042338;28;19924;-63
2022/12/05 09:07:08;;;;;;;;;;;3.70;99.90;;;;;;5050139;28;19956;-64
2022/12/05 09:09:33;;;;;;;;;;;3.40;99.90;;;;;;5055745;28;20039;-64
2022/12/05 09:11:59;;;;;;;;;;;3.10;99.90;;;;;;5045002;28;19932;-62
2022/12/05 09:14:31;;;;;;;;;;;2.80;99.90;;;;;;5038593;28;19924;-63
2022/12/05 09:16:57;;;;;;;;;;;3.00;99.90;;;;;;5043278;28;20376;-61
2022/12/05 09:19:24;;;;;;;;;;;3.00;99.90;;;;;;5040310;28;20113;-61
2022/12/05 09:21:50;;;;;;;;;;;3.30;99.90;;;;;;5042659;28;19991;-63
2022/12/05 09:24:15;;;;;;;;;;;3.10;99.90;;;;;;5037395;28;20069;-63
2022/12/05 09:26:41;;;;;;;;;;;3.30;99.90;;;;;;5055673;28;19912;-63
2022/12/05 09:29:08;;;;;;;;;;;2.90;99.90;;;;;;5060310;28;20625;-63
2022/12/05 09:31:33;;;;;;;;;;;2.90;99.90;;;;;;5054965;28;19964;-63
2022/12/05 09:33:59;;;;;;;;;;;2.80;99.90;;;;;;5051874;28;20015;-63
2022/12/05 09:36:26;;;;;;;;;;;2.80;99.90;;;;;;5065755;28;19923;-63
2022/12/05 09:38:51;;;;;;;;;;;2.80;99.90;;;;;;5060968;28;20363;-63
2022/12/05 09:42:03;;;;;;;;;;;2.70;99.90;;;;;;5057255;28;19920;-62
2022/12/05 09:44:08;;;;;;;;;;;2.80;99.90;;;;;;5059318;28;19955;-63
2022/12/05 09:46:44;;;;;;;;;;;2.70;99.90;;;;;;5060008;28;19917;-63
2022/12/05 09:49:10;;;;;;;;;;;2.70;99.90;;;;;;5058903;28;19920;-62
2022/12/05 09:51:39;;;;;;;;;;;2.50;99.90;;;;;;5054088;28;19916;-63
2022/12/05 09:54:04;;;;;;;;;;;2.50;99.90;;;;;;5054241;28;19920;-63
2022/12/05 09:56:30;;;;;;;;;;;2.50;99.90;;;;;;5058381;28;19920;-63
2022/12/05 09:58:56;;;;;;;;;;;2.60;99.90;;;;;;5048586;28;19913;-63
2022/12/05 10:01:24;;;;;;;;;;;3.00;99.90;;;;;;5057421;28;20561;-63
2022/12/05 10:03:50;;;;;;;;;;;2.60;99.90;;;;;;5055146;28;19936;-63
2022/12/05 10:06:27;;;;;;;;;;;2.80;99.90;;;;;;5052922;28;20297;-62
2022/12/05 10:09:12;;;;;;;;;;;2.40;99.90;;;;;;5056515;28;20379;-63
2022/12/05 10:12:03;;;;;;;;;;;2.70;99.90;;;;;;5035452;28;19917;-62
2022/12/05 10:14:39;;;;;;;;;;;2.80;99.90;;;;;;5033841;28;20217;-63
2022/12/05 10:17:13;;;;;;;;;;;2.70;99.90;;;;;;5037052;28;20015;-63
2022/12/05 10:19:42;;;;;;;;;;;2.70;99.90;;;;;;5030725;28;19966;-63
2022/12/05 10:22:17;;;;;;;;;;;2.80;99.90;;;;;;5034143;28;19935;-63
2022/12/05 10:24:45;;;;;;;;;;;2.90;99.90;;;;;;5035712;28;20914;-63
2022/12/05 10:27:17;;;;;;;;;;;3.10;99.90;;;;;;5034182;28;20517;-63
2022/12/05 10:29:44;;;;;;;;;;;2.70;99.90;;;;;;5034889;28;20524;-63
2022/12/05 10:32:10;;;;;;;;;;;2.50;99.90;;;;;;5044055;28;20523;-62
2022/12/05 10:34:39;;;;;;;;;;;2.50;99.90;;;;;;5036838;28;19917;-63
2022/12/05 10:37:15;;;;;;;;;;;2.40;99.90;;;;;;5034846;28;19913;-63
2022/12/05 10:39:41;;;;;;;;;;;2.30;99.90;;;;;;5035712;28;19936;-62
2022/12/05 10:42:11;;;;;;;;;;;2.70;99.90;;;;;;5037978;28;19987;-62
2022/12/05 10:44:36;;;;;;;;;;;2.60;99.90;;;;;;5038192;28;19995;-63
2022/12/05 10:47:02;;;;;;;;;;;2.70;99.90;;;;;;5035875;28;20021;-62
2022/12/05 10:49:27;;;;;;;;;;;2.70;99.90;;;;;;5041082;28;19960;-63
2022/12/05 10:51:53;;;;;;;;;;;2.90;99.90;;;;;;5037426;28;19917;-62
2022/12/05 10:54:24;;;;;;;;;;;2.90;99.90;;;;;;5037053;28;20425;-65
2022/12/05 10:56:50;;;;;;;;;;;2.80;99.90;;;;;;5035477;28;19925;-63
2022/12/05 10:59:17;;;;;;;;;;;2.50;99.90;;;;;;5037104;28;19956;-63
2022/12/05 11:01:47;;;;;;;;;;;2.40;99.90;;;;;;5039998;28;20541;-63
2022/12/05 11:04:36;;;;;;;;;;;2.50;99.90;;;;;;5035305;28;19913;-63
2022/12/05 11:07:03;;;;;;;;;;;2.70;99.90;;;;;;5038242;28;19913;-63
2022/12/05 11:09:30;;;;;;;;;;;2.50;99.90;;;;;;5040127;28;19982;-63
2022/12/05 11:12:13;;;;;;;;;;;2.60;99.90;;;;;;5039319;28;19948;-62
2022/12/05 11:14:39;;;;;;;;;;;2.40;99.90;;;;;;5037351;28;19977;-62
2022/12/05 11:17:05;;;;;;;;;;;2.40;99.90;;;;;;5033825;28;19925;-62
2022/12/05 11:19:30;;;;;;;;;;;2.70;99.90;;;;;;5029757;28;19920;-62
2022/12/05 11:21:56;;;;;;;;;;;2.70;99.90;;;;;;5041021;28;20008;-63
2022/12/05 11:24:26;;;;;;;;;;;3.10;99.90;;;;;;5033023;28;19917;-62
2022/12/05 11:26:51;;;;;;;;;;;3.00;99.90;;;;;;5033599;28;20003;-63
2022/12/05 11:29:28;;;;;;;;;;;3.10;99.90;;;;;;5038862;28;20013;-63
2022/12/05 11:31:54;;;;;;;;;;;3.10;99.90;;;;;;5033530;28;19917;-63
2022/12/05 11:34:24;;;;;;;;;;;2.90;99.90;;;;;;5033863;28;20507;-63
2022/12/05 11:36:53;;;;;;;;;;;2.80;99.90;;;;;;5031787;28;20008;-63
2022/12/05 11:39:18;;;;;;;;;;;3.00;99.90;;;;;;5037425;28;20058;-63
2022/12/05 11:42:03;;;;;;;;;;;2.70;99.90;;;;;;5038101;28;20011;-64
2022/12/05 11:44:31;;;;;;;;;;;2.60;99.90;;;;;;5037291;28;19925;-63
2022/12/05 11:47:03;;;;;;;;;;;2.80;99.90;;;;;;5030385;28;20610;-63
2022/12/05 11:49:31;;;;;;;;;;;2.90;99.90;;;;;;5043631;28;20020;-63
2022/12/05 11:52:06;;;;;;;;;;;2.50;99.90;;;;;;5037974;28;20526;-63
2022/12/05 11:54:50;;;;;;;;;;;2.80;99.90;;;;;;5036895;28;19921;-65
2022/12/05 11:57:22;;;;;;;;;;;2.70;99.90;;;;;;5037034;28;19921;-64
2022/12/05 12:00:00;;;;;;;;;;;2.40;99.90;;;;;;5039309;28;19917;-64
2022/12/05 12:02:44;;;;;;;;;;;2.50;99.90;;;;;;5037150;28;19925;-63
2022/12/05 12:05:25;;;;;;;;;;;2.40;99.90;;;;;;5036918;28;20315;-64
2022/12/05 12:07:50;;;;;;;;;;;2.60;99.90;;;;;;5032532;28;20591;-64
2022/12/05 12:10:30;;;;;;;;;;;2.80;99.90;;;;;;5035286;28;19913;-63
2022/12/05 12:13:18;;;;;;;;;;;2.70;99.90;;;;;;5036447;28;20301;-64
2022/12/05 12:15:53;;;;;;;;;;;2.80;99.90;;;;;;5036670;28;19928;-63
2022/12/05 12:18:39;;;;;;;;;;;3.10;99.90;;;;;;5036002;28;19912;-63
2022/12/05 12:21:28;;;;;;;;;;;2.50;99.90;;;;;;5039241;28;19968;-63
2022/12/05 12:24:10;;;;;;;;;;;2.60;99.90;;;;;;5038488;28;20395;-63
2022/12/05 12:26:44;;;;;;;;;;;2.90;99.90;;;;;;5036586;28;19920;-63
2022/12/05 12:29:28;;;;;;;;;;;2.60;99.90;;;;;;5033235;28;19917;-63
2022/12/05 12:32:07;;;;;;;;;;;2.40;99.90;;;;;;5038787;28;19916;-63
2022/12/05 12:34:36;;;;;;;;;;;2.30;99.90;;;;;;5057165;28;19916;-62
2022/12/05 12:37:13;;;;;;;;;;;2.20;99.90;;;;;;5059311;28;19962;-62
2022/12/05 12:39:52;;;;;;;;;;;2.10;99.90;;;;;;5058589;28;20635;-63
2022/12/05 12:42:20;;;;;;;;;;;2.20;99.90;;;;;;5053625;28;20231;-63
2022/12/05 12:44:54;;;;;;;;;;;2.50;99.90;;;;;;5061473;28;19912;-63
2022/12/05 12:47:27;;;;;;;;;;;2.60;99.90;;;;;;5057176;28;19951;-63
2022/12/05 12:49:53;;;;;;;;;;;2.60;99.90;;;;;;5059195;28;19947;-63
2022/12/05 12:52:21;;;;;;;;;;;2.70;99.90;;;;;;5062892;28;20477;-63
2022/12/05 12:55:05;;;;;;;;;;;2.70;99.90;;;;;;5064581;28;19912;-63
2022/12/05 12:57:37;;;;;;;;;;;2.60;99.90;;;;;;5049718;28;20152;-63
2022/12/05 13:00:21;;;;;;;;;;;2.30;99.90;;;;;;5058757;28;19920;-63
2022/12/05 13:02:50;;;;;;;;;;;2.40;99.90;;;;;;5056487;28;19921;-63
2022/12/05 13:05:33;;;;;;;;;;;2.40;99.90;;;;;;5059410;28;19918;-64
2022/12/05 13:08:02;;;;;;;;;;;2.70;99.90;;;;;;5058032;28;19947;-64
2022/12/05 13:10:29;;;;;;;;;;;2.80;99.90;;;;;;5038729;28;20435;-64
2022/12/05 13:12:56;;;;;;;;;;;2.90;99.90;;;;;;5036980;28;20575;-64
2022/12/05 13:15:43;;;;;;;;;;;2.70;99.90;;;;;;5037618;28;19928;-64
2022/12/05 13:18:23;;;;;;;;;;;2.70;99.90;;;;;;5034606;28;19924;-65
2022/12/05 13:20:50;;;;;;;;;;;2.80;99.90;;;;;;5037961;28;19917;-64
2022/12/05 13:23:17;;;;;;;;;;;2.90;99.90;;;;;;5040530;28;19913;-64
2022/12/05 13:25:43;;;;;;;;;;;3.00;99.90;;;;;;5036856;28;20582;-64
2022/12/05 13:28:24;;;;;;;;;;;3.20;99.90;;;;;;5031836;28;19941;-61
2022/12/05 13:31:03;;;;;;;;;;;3.30;99.90;;;;;;5031219;28;19925;-62
2022/12/05 13:33:49;;;;;;;;;;;3.20;99.90;;;;;;5034361;28;19982;-64
2022/12/05 13:44:40;;;;;;;;;;;3.00;99.90;;;;;;5033666;28;20566;-63
2022/12/05 13:47:06;;;;;;;;;;;3.00;99.90;;;;;;5036453;28;19917;-63
2022/12/05 13:49:47;;;;;;;;;;;3.00;99.90;;;;;;5035156;28;19917;-63
2022/12/05 13:52:20;;;;;;;;;;;3.00;99.90;;;;;;5033219;28;19927;-63
2022/12/05 13:54:50;;;;;;;;;;;2.90;99.90;;;;;;5033878;28;19919;-63
2022/12/05 13:57:34;;;;;;;;;;;2.90;99.90;;;;;;5034874;28;19917;-63
2022/12/05 14:00:09;;;;;;;;;;;3.00;99.90;;;;;;5037633;28;19923;-63
2022/12/05 14:02:40;;;;;;;;;;;2.90;99.90;;;;;;5057221;28;19944;-63
2022/12/05 14:05:12;;;;;;;;;;;2.90;99.90;;;;;;5054790;28;19928;-64
2022/12/05 14:07:50;;;;;;;;;;;2.90;99.90;;;;;;5055307;28;20379;-64
2022/12/05 14:10:21;;;;;;;;;;;2.90;99.90;;;;;;5060343;28;19916;-64
2022/12/05 14:12:46;;;;;;;;;;;2.80;99.90;;;;;;5055267;28;19913;-64
2022/12/05 14:15:25;;;;;;;;;;;2.70;99.90;;;;;;5058365;28;19994;-64
2022/12/05 14:18:14;;;;;;;;;;;2.70;99.90;;;;;;5058260;28;19920;-64
2022/12/05 14:20:45;;;;;;;;;;;2.80;99.90;;;;;;5041301;28;19924;-65
2022/12/05 14:23:14;;;;;;;;;;;2.80;99.90;;;;;;5037140;28;19957;-64
2022/12/05 14:25:57;;;;;;;;;;;2.80;99.90;;;;;;5038317;28;19916;-65
2022/12/05 14:28:36;;;;;;;;;;;2.70;99.90;;;;;;5039573;28;19913;-65
2022/12/05 14:31:01;;;;;;;;;;;2.80;99.90;;;;;;5036386;28;19917;-65
2022/12/05 14:33:27;;;;;;;;;;;2.70;99.90;;;;;;5041322;28;19913;-65
2022/12/05 14:35:52;;;;;;;;;;;2.80;99.90;;;;;;5034733;28;19917;-65
2022/12/05 14:38:26;;;;;;;;;;;2.70;99.90;;;;;;5033050;28;20002;-65
2022/12/05 14:40:52;;;;;;;;;;;2.70;99.90;;;;;;5030466;28;19925;-65
2022/12/05 14:43:26;;;;;;;;;;;2.70;99.90;;;;;;5033650;28;19925;-65
2022/12/05 14:45:51;;;;;;;;;;;2.70;99.90;;;;;;5031376;28;19917;-66
2022/12/05 14:48:34;;;;;;;;;;;2.70;99.90;;;;;;5023264;28;19928;-66
2022/12/05 14:51:00;;;;;;;;;;;2.60;99.90;;;;;;5034585;28;19925;-65
2022/12/05 14:53:30;;;;;;;;;;;2.70;99.90;;;;;;5041623;28;19917;-67
2022/12/05 14:55:59;;;;;;;;;;;2.70;99.90;;;;;;5040858;28;19916;-66
2022/12/05 14:58:31;;;;;;;;;;;2.60;99.90;;;;;;5037650;28;20432;-66